sensor_id;sensor_type;location;lat;lon;timestamp;P1;durP1;ratioP1;P2;durP2;ratioP2
12165;SDS011;6146;48.128;11.476;2022-09-03T00:00:01;4.27;;;2.53;;
12165;SDS011;6146;48.128;11.476;2022-09-03T00:05:09;2.50;;;2.30;;
12165;SDS011;6146;48.128;11.476;2022-09-03T00:13:24;6.13;;;2.60;;
12165;SDS011;6146;48.128;11.476;2022-09-03T00:15:55;2.50;;;2.30;;
12165;SDS011;6146;48.128;11.476;2022-09-03T00:18:23;5.17;;;2.80;;
12165;SDS011;6146;48.128;11.476;2022-09-03T00:21:03;3.63;;;2.40;;
12165;SDS011;6146;48.128;11.476;2022-09-03T00:23:43;2.67;;;2.47;;
12165;SDS011;6146;48.128;11.476;2022-09-03T00:31:31;2.63;;;2.43;;
12165;SDS011;6146;48.128;11.476;2022-09-03T00:34:09;3.57;;;2.57;;
12165;SDS011;6146;48.128;11.476;2022-09-03T00:36:48;2.90;;;2.60;;
12165;SDS011;6146;48.128;11.476;2022-09-03T00:39:18;3.17;;;2.80;;
12165;SDS011;6146;48.128;11.476;2022-09-03T00:47:21;3.40;;;2.50;;
12165;SDS011;6146;48.128;11.476;2022-09-03T00:57:39;3.07;;;2.80;;
12165;SDS011;6146;48.128;11.476;2022-09-03T01:00:13;2.77;;;2.50;;
12165;SDS011;6146;48.128;11.476;2022-09-03T01:02:55;3.70;;;2.67;;
12165;SDS011;6146;48.128;11.476;2022-09-03T01:05:52;3.10;;;2.80;;
12165;SDS011;6146;48.128;11.476;2022-09-03T01:08:31;3.33;;;3.00;;
12165;SDS011;6146;48.128;11.476;2022-09-03T01:25:30;2.87;;;2.67;;
12165;SDS011;6146;48.128;11.476;2022-09-03T01:28:22;3.20;;;2.87;;
12165;SDS011;6146;48.128;11.476;2022-09-03T01:36:43;3.87;;;2.57;;
12165;SDS011;6146;48.128;11.476;2022-09-03T01:42:56;3.20;;;2.90;;
12165;SDS011;6146;48.128;11.476;2022-09-03T01:48:28;3.77;;;3.10;;
12165;SDS011;6146;48.128;11.476;2022-09-03T01:50:57;3.60;;;3.30;;
12165;SDS011;6146;48.128;11.476;2022-09-03T02:04:52;3.93;;;3.03;;
12165;SDS011;6146;48.128;11.476;2022-09-03T02:07:30;3.23;;;2.90;;
12165;SDS011;6146;48.128;11.476;2022-09-03T02:10:02;4.37;;;3.00;;
12165;SDS011;6146;48.128;11.476;2022-09-03T02:12:32;3.13;;;2.80;;
12165;SDS011;6146;48.128;11.476;2022-09-03T02:15:03;3.47;;;3.17;;
12165;SDS011;6146;48.128;11.476;2022-09-03T02:17:31;4.03;;;3.40;;
12165;SDS011;6146;48.128;11.476;2022-09-03T02:20:00;3.40;;;2.97;;
12165;SDS011;6146;48.128;11.476;2022-09-03T02:22:30;5.80;;;3.27;;
12165;SDS011;6146;48.128;11.476;2022-09-03T02:24:56;3.60;;;3.30;;
12165;SDS011;6146;48.128;11.476;2022-09-03T02:27:22;3.90;;;3.50;;
12165;SDS011;6146;48.128;11.476;2022-09-03T02:29:48;3.70;;;3.20;;
12165;SDS011;6146;48.128;11.476;2022-09-03T02:32:13;3.57;;;3.27;;
12165;SDS011;6146;48.128;11.476;2022-09-03T02:34:40;3.27;;;2.97;;
12165;SDS011;6146;48.128;11.476;2022-09-03T02:37:13;5.67;;;3.23;;
12165;SDS011;6146;48.128;11.476;2022-09-03T02:39:40;4.37;;;3.10;;
12165;SDS011;6146;48.128;11.476;2022-09-03T02:42:06;3.70;;;3.27;;
12165;SDS011;6146;48.128;11.476;2022-09-03T02:44:36;3.70;;;3.40;;
12165;SDS011;6146;48.128;11.476;2022-09-03T02:47:06;3.50;;;3.20;;
12165;SDS011;6146;48.128;11.476;2022-09-03T02:49:32;3.50;;;3.20;;
12165;SDS011;6146;48.128;11.476;2022-09-03T02:52:05;3.43;;;3.13;;
12165;SDS011;6146;48.128;11.476;2022-09-03T02:54:34;3.50;;;3.20;;
12165;SDS011;6146;48.128;11.476;2022-09-03T02:57:03;3.77;;;3.20;;
12165;SDS011;6146;48.128;11.476;2022-09-03T02:59:33;4.50;;;3.60;;
12165;SDS011;6146;48.128;11.476;2022-09-03T03:01:59;3.73;;;3.43;;
12165;SDS011;6146;48.128;11.476;2022-09-03T03:04:25;3.87;;;3.43;;
12165;SDS011;6146;48.128;11.476;2022-09-03T03:06:51;4.30;;;3.50;;
12165;SDS011;6146;48.128;11.476;2022-09-03T03:09:16;4.70;;;3.37;;
12165;SDS011;6146;48.128;11.476;2022-09-03T03:11:42;3.87;;;3.53;;
12165;SDS011;6146;48.128;11.476;2022-09-03T03:14:08;5.60;;;3.50;;
12165;SDS011;6146;48.128;11.476;2022-09-03T03:16:34;3.80;;;3.50;;
12165;SDS011;6146;48.128;11.476;2022-09-03T03:19:00;3.90;;;3.50;;
12165;SDS011;6146;48.128;11.476;2022-09-03T03:21:26;3.67;;;3.37;;
12165;SDS011;6146;48.128;11.476;2022-09-03T03:23:52;4.60;;;4.20;;
12165;SDS011;6146;48.128;11.476;2022-09-03T03:26:18;5.17;;;4.23;;
12165;SDS011;6146;48.128;11.476;2022-09-03T03:28:48;5.30;;;3.97;;
12165;SDS011;6146;48.128;11.476;2022-09-03T03:31:19;3.90;;;3.40;;
12165;SDS011;6146;48.128;11.476;2022-09-03T03:33:49;4.50;;;3.77;;
12165;SDS011;6146;48.128;11.476;2022-09-03T03:36:16;4.30;;;3.90;;
12165;SDS011;6146;48.128;11.476;2022-09-03T03:38:42;4.40;;;4.00;;
12165;SDS011;6146;48.128;11.476;2022-09-03T03:41:15;4.63;;;3.90;;
12165;SDS011;6146;48.128;11.476;2022-09-03T03:43:43;4.13;;;3.80;;
12165;SDS011;6146;48.128;11.476;2022-09-03T03:46:09;3.97;;;3.57;;
12165;SDS011;6146;48.128;11.476;2022-09-03T03:48:36;4.03;;;3.40;;
12165;SDS011;6146;48.128;11.476;2022-09-03T03:51:03;6.30;;;3.70;;
12165;SDS011;6146;48.128;11.476;2022-09-03T03:53:31;4.43;;;3.87;;
12165;SDS011;6146;48.128;11.476;2022-09-03T03:56:00;4.00;;;3.70;;
12165;SDS011;6146;48.128;11.476;2022-09-03T03:58:27;3.87;;;3.57;;
12165;SDS011;6146;48.128;11.476;2022-09-03T04:00:55;4.33;;;4.00;;
12165;SDS011;6146;48.128;11.476;2022-09-03T04:03:27;5.07;;;4.00;;
12165;SDS011;6146;48.128;11.476;2022-09-03T04:05:53;4.67;;;3.83;;
12165;SDS011;6146;48.128;11.476;2022-09-03T04:08:23;4.10;;;3.70;;
12165;SDS011;6146;48.128;11.476;2022-09-03T04:10:49;5.20;;;4.07;;
12165;SDS011;6146;48.128;11.476;2022-09-03T04:13:15;4.77;;;4.30;;
12165;SDS011;6146;48.128;11.476;2022-09-03T04:15:41;4.40;;;4.00;;
12165;SDS011;6146;48.128;11.476;2022-09-03T04:18:07;7.97;;;4.27;;
12165;SDS011;6146;48.128;11.476;2022-09-03T04:20:34;4.90;;;4.50;;
12165;SDS011;6146;48.128;11.476;2022-09-03T04:23:00;4.03;;;3.73;;
12165;SDS011;6146;48.128;11.476;2022-09-03T04:25:26;4.40;;;4.00;;
12165;SDS011;6146;48.128;11.476;2022-09-03T04:27:51;4.17;;;3.57;;
12165;SDS011;6146;48.128;11.476;2022-09-03T04:30:17;4.73;;;4.30;;
12165;SDS011;6146;48.128;11.476;2022-09-03T04:32:43;4.40;;;4.00;;
12165;SDS011;6146;48.128;11.476;2022-09-03T04:35:22;4.70;;;4.30;;
12165;SDS011;6146;48.128;11.476;2022-09-03T04:37:49;4.33;;;3.93;;
12165;SDS011;6146;48.128;11.476;2022-09-03T04:40:15;4.60;;;4.20;;
12165;SDS011;6146;48.128;11.476;2022-09-03T04:42:41;3.87;;;3.57;;
12165;SDS011;6146;48.128;11.476;2022-09-03T04:45:07;4.50;;;3.90;;
12165;SDS011;6146;48.128;11.476;2022-09-03T04:47:33;4.03;;;3.63;;
12165;SDS011;6146;48.128;11.476;2022-09-03T04:50:01;3.83;;;3.53;;
12165;SDS011;6146;48.128;11.476;2022-09-03T04:52:27;4.10;;;3.80;;
12165;SDS011;6146;48.128;11.476;2022-09-03T04:54:55;4.37;;;4.03;;
12165;SDS011;6146;48.128;11.476;2022-09-03T04:57:21;4.10;;;3.70;;
12165;SDS011;6146;48.128;11.476;2022-09-03T04:59:47;4.63;;;3.10;;
12165;SDS011;6146;48.128;11.476;2022-09-03T05:02:13;4.30;;;3.90;;
12165;SDS011;6146;48.128;11.476;2022-09-03T05:04:39;3.83;;;3.43;;
12165;SDS011;6146;48.128;11.476;2022-09-03T05:07:05;4.03;;;3.70;;
12165;SDS011;6146;48.128;11.476;2022-09-03T05:09:31;3.47;;;3.17;;
12165;SDS011;6146;48.128;11.476;2022-09-03T05:11:57;5.33;;;3.67;;
12165;SDS011;6146;48.128;11.476;2022-09-03T05:14:22;4.87;;;3.33;;
12165;SDS011;6146;48.128;11.476;2022-09-03T05:16:48;4.23;;;3.53;;
12165;SDS011;6146;48.128;11.476;2022-09-03T05:19:14;3.90;;;3.17;;
12165;SDS011;6146;48.128;11.476;2022-09-03T05:21:40;5.07;;;3.90;;
12165;SDS011;6146;48.128;11.476;2022-09-03T05:24:07;3.53;;;3.20;;
12165;SDS011;6146;48.128;11.476;2022-09-03T05:26:36;3.80;;;3.40;;
12165;SDS011;6146;48.128;11.476;2022-09-03T05:29:03;4.20;;;3.80;;
12165;SDS011;6146;48.128;11.476;2022-09-03T05:31:31;4.13;;;3.37;;
12165;SDS011;6146;48.128;11.476;2022-09-03T05:33:58;4.00;;;3.30;;
12165;SDS011;6146;48.128;11.476;2022-09-03T05:36:26;3.20;;;2.93;;
12165;SDS011;6146;48.128;11.476;2022-09-03T05:38:53;3.60;;;3.30;;
12165;SDS011;6146;48.128;11.476;2022-09-03T05:41:20;3.90;;;3.53;;
12165;SDS011;6146;48.128;11.476;2022-09-03T05:43:47;3.47;;;3.13;;
12165;SDS011;6146;48.128;11.476;2022-09-03T05:46:17;3.20;;;2.90;;
12165;SDS011;6146;48.128;11.476;2022-09-03T05:48:43;3.00;;;2.80;;
12165;SDS011;6146;48.128;11.476;2022-09-03T05:51:18;3.00;;;2.80;;
12165;SDS011;6146;48.128;11.476;2022-09-03T05:53:44;3.20;;;2.80;;
12165;SDS011;6146;48.128;11.476;2022-09-03T05:56:16;3.33;;;2.97;;
12165;SDS011;6146;48.128;11.476;2022-09-03T05:58:44;3.53;;;3.20;;
12165;SDS011;6146;48.128;11.476;2022-09-03T06:01:18;3.50;;;2.77;;
12165;SDS011;6146;48.128;11.476;2022-09-03T06:04:09;2.77;;;2.57;;
12165;SDS011;6146;48.128;11.476;2022-09-03T06:06:36;2.97;;;2.70;;
12165;SDS011;6146;48.128;11.476;2022-09-03T06:09:04;3.27;;;2.93;;
12165;SDS011;6146;48.128;11.476;2022-09-03T06:11:35;2.90;;;2.60;;
12165;SDS011;6146;48.128;11.476;2022-09-03T06:14:02;3.33;;;2.87;;
12165;SDS011;6146;48.128;11.476;2022-09-03T06:16:31;4.30;;;2.90;;
12165;SDS011;6146;48.128;11.476;2022-09-03T06:18:58;5.20;;;2.87;;
12165;SDS011;6146;48.128;11.476;2022-09-03T06:21:24;3.33;;;3.03;;
12165;SDS011;6146;48.128;11.476;2022-09-03T06:23:51;3.30;;;2.90;;
12165;SDS011;6146;48.128;11.476;2022-09-03T06:26:18;3.23;;;2.93;;
12165;SDS011;6146;48.128;11.476;2022-09-03T06:28:45;4.77;;;3.53;;
12165;SDS011;6146;48.128;11.476;2022-09-03T06:31:13;3.67;;;3.37;;
12165;SDS011;6146;48.128;11.476;2022-09-03T06:33:40;3.57;;;3.27;;
12165;SDS011;6146;48.128;11.476;2022-09-03T06:36:07;4.17;;;3.63;;
12165;SDS011;6146;48.128;11.476;2022-09-03T06:38:35;3.57;;;3.17;;
12165;SDS011;6146;48.128;11.476;2022-09-03T06:41:03;3.77;;;3.30;;
12165;SDS011;6146;48.128;11.476;2022-09-03T06:43:31;3.80;;;3.50;;
12165;SDS011;6146;48.128;11.476;2022-09-03T06:46:05;3.10;;;2.90;;
12165;SDS011;6146;48.128;11.476;2022-09-03T06:48:39;4.30;;;3.90;;
12165;SDS011;6146;48.128;11.476;2022-09-03T06:51:07;4.13;;;3.10;;
12165;SDS011;6146;48.128;11.476;2022-09-03T06:53:38;3.80;;;3.30;;
12165;SDS011;6146;48.128;11.476;2022-09-03T06:56:09;3.80;;;3.50;;
12165;SDS011;6146;48.128;11.476;2022-09-03T06:58:37;5.13;;;3.40;;
12165;SDS011;6146;48.128;11.476;2022-09-03T07:01:07;3.53;;;3.23;;
12165;SDS011;6146;48.128;11.476;2022-09-03T07:03:39;3.50;;;3.20;;
12165;SDS011;6146;48.128;11.476;2022-09-03T07:06:10;3.47;;;3.03;;
12165;SDS011;6146;48.128;11.476;2022-09-03T07:08:38;4.90;;;3.30;;
12165;SDS011;6146;48.128;11.476;2022-09-03T07:11:05;5.90;;;3.40;;
12165;SDS011;6146;48.128;11.476;2022-09-03T07:13:35;5.17;;;3.47;;
12165;SDS011;6146;48.128;11.476;2022-09-03T07:16:05;3.67;;;3.20;;
12165;SDS011;6146;48.128;11.476;2022-09-03T07:18:36;3.57;;;3.27;;
12165;SDS011;6146;48.128;11.476;2022-09-03T07:21:09;4.17;;;3.47;;
12165;SDS011;6146;48.128;11.476;2022-09-03T07:23:36;3.97;;;3.60;;
12165;SDS011;6146;48.128;11.476;2022-09-03T07:26:04;4.73;;;3.87;;
12165;SDS011;6146;48.128;11.476;2022-09-03T07:28:33;3.67;;;3.37;;
12165;SDS011;6146;48.128;11.476;2022-09-03T07:31:01;3.80;;;3.50;;
12165;SDS011;6146;48.128;11.476;2022-09-03T07:33:29;4.13;;;3.70;;
12165;SDS011;6146;48.128;11.476;2022-09-03T07:35:55;6.63;;;3.77;;
12165;SDS011;6146;48.128;11.476;2022-09-03T07:38:26;3.60;;;3.30;;
12165;SDS011;6146;48.128;11.476;2022-09-03T07:40:58;3.40;;;3.10;;
12165;SDS011;6146;48.128;11.476;2022-09-03T07:43:28;3.50;;;3.20;;
12165;SDS011;6146;48.128;11.476;2022-09-03T07:45:58;3.80;;;3.50;;
12165;SDS011;6146;48.128;11.476;2022-09-03T07:48:25;4.20;;;3.37;;
12165;SDS011;6146;48.128;11.476;2022-09-03T07:50:51;4.17;;;3.60;;
12165;SDS011;6146;48.128;11.476;2022-09-03T07:53:17;5.10;;;3.30;;
12165;SDS011;6146;48.128;11.476;2022-09-03T07:55:44;4.00;;;3.60;;
12165;SDS011;6146;48.128;11.476;2022-09-03T07:58:11;3.90;;;3.60;;
12165;SDS011;6146;48.128;11.476;2022-09-03T08:00:37;5.23;;;3.50;;
12165;SDS011;6146;48.128;11.476;2022-09-03T08:03:03;4.13;;;3.73;;
12165;SDS011;6146;48.128;11.476;2022-09-03T08:05:32;4.10;;;3.70;;
12165;SDS011;6146;48.128;11.476;2022-09-03T08:08:01;5.23;;;4.17;;
12165;SDS011;6146;48.128;11.476;2022-09-03T08:10:27;4.70;;;4.30;;
12165;SDS011;6146;48.128;11.476;2022-09-03T08:12:55;5.10;;;3.80;;
12165;SDS011;6146;48.128;11.476;2022-09-03T08:15:22;5.10;;;4.13;;
12165;SDS011;6146;48.128;11.476;2022-09-03T08:17:47;4.40;;;4.00;;
12165;SDS011;6146;48.128;11.476;2022-09-03T08:20:13;4.00;;;3.70;;
12165;SDS011;6146;48.128;11.476;2022-09-03T08:22:39;4.10;;;3.80;;
12165;SDS011;6146;48.128;11.476;2022-09-03T08:25:05;4.30;;;3.90;;
12165;SDS011;6146;48.128;11.476;2022-09-03T08:27:31;4.27;;;3.73;;
12165;SDS011;6146;48.128;11.476;2022-09-03T08:29:57;4.40;;;3.87;;
12165;SDS011;6146;48.128;11.476;2022-09-03T08:32:22;4.03;;;3.73;;
12165;SDS011;6146;48.128;11.476;2022-09-03T08:34:48;3.93;;;3.50;;
12165;SDS011;6146;48.128;11.476;2022-09-03T08:37:16;3.70;;;3.40;;
12165;SDS011;6146;48.128;11.476;2022-09-03T08:39:42;4.03;;;3.50;;
12165;SDS011;6146;48.128;11.476;2022-09-03T08:42:15;4.07;;;3.77;;
12165;SDS011;6146;48.128;11.476;2022-09-03T08:45:08;3.80;;;3.50;;
12165;SDS011;6146;48.128;11.476;2022-09-03T08:47:40;3.37;;;3.07;;
12165;SDS011;6146;48.128;11.476;2022-09-03T08:50:26;4.00;;;3.23;;
12165;SDS011;6146;48.128;11.476;2022-09-03T08:53:16;3.63;;;3.30;;
12165;SDS011;6146;48.128;11.476;2022-09-03T08:55:46;3.43;;;3.13;;
12165;SDS011;6146;48.128;11.476;2022-09-03T08:58:21;4.13;;;3.30;;
12165;SDS011;6146;48.128;11.476;2022-09-03T09:01:06;3.37;;;2.83;;
12165;SDS011;6146;48.128;11.476;2022-09-03T09:20:20;2.10;;;1.90;;
12165;SDS011;6146;48.128;11.476;2022-09-03T09:22:48;2.40;;;1.97;;
12165;SDS011;6146;48.128;11.476;2022-09-03T09:25:19;1.90;;;1.80;;
12165;SDS011;6146;48.128;11.476;2022-09-03T09:27:54;2.07;;;1.87;;
12165;SDS011;6146;48.128;11.476;2022-09-03T09:30:23;1.93;;;1.83;;
12165;SDS011;6146;48.128;11.476;2022-09-03T09:32:49;1.93;;;1.83;;
12165;SDS011;6146;48.128;11.476;2022-09-03T09:35:15;2.10;;;1.90;;
12165;SDS011;6146;48.128;11.476;2022-09-03T09:37:52;1.97;;;1.80;;
12165;SDS011;6146;48.128;11.476;2022-09-03T09:40:23;4.95;;;1.90;;
12165;SDS011;6146;48.128;11.476;2022-09-03T09:43:02;1.60;;;1.50;;
12165;SDS011;6146;48.128;11.476;2022-09-03T09:45:28;1.70;;;1.60;;
12165;SDS011;6146;48.128;11.476;2022-09-03T09:47:58;1.70;;;1.60;;
12165;SDS011;6146;48.128;11.476;2022-09-03T09:50:24;1.83;;;1.73;;
12165;SDS011;6146;48.128;11.476;2022-09-03T09:53:03;2.20;;;2.00;;
12165;SDS011;6146;48.128;11.476;2022-09-03T09:55:47;3.80;;;3.20;;
12165;SDS011;6146;48.128;11.476;2022-09-03T09:58:18;2.35;;;2.15;;
12165;SDS011;6146;48.128;11.476;2022-09-03T10:03:24;1.80;;;1.70;;
12165;SDS011;6146;48.128;11.476;2022-09-03T10:06:00;1.80;;;1.70;;
12165;SDS011;6146;48.128;11.476;2022-09-03T10:08:50;1.93;;;1.83;;
12165;SDS011;6146;48.128;11.476;2022-09-03T10:11:17;2.33;;;2.13;;
12165;SDS011;6146;48.128;11.476;2022-09-03T10:13:49;1.73;;;1.63;;
12165;SDS011;6146;48.128;11.476;2022-09-03T10:16:28;2.00;;;1.70;;
12165;SDS011;6146;48.128;11.476;2022-09-03T10:19:04;1.80;;;1.70;;
12165;SDS011;6146;48.128;11.476;2022-09-03T10:21:44;2.83;;;2.00;;
12165;SDS011;6146;48.128;11.476;2022-09-03T10:27:22;2.10;;;1.90;;
12165;SDS011;6146;48.128;11.476;2022-09-03T10:29:48;2.45;;;1.98;;
12165;SDS011;6146;48.128;11.476;2022-09-03T10:46:10;3.55;;;3.25;;
12165;SDS011;6146;48.128;11.476;2022-09-03T10:48:56;1.50;;;1.40;;
12165;SDS011;6146;48.128;11.476;2022-09-03T10:51:48;2.10;;;1.90;;
12165;SDS011;6146;48.128;11.476;2022-09-03T11:02:38;1.48;;;1.38;;
12165;SDS011;6146;48.128;11.476;2022-09-03T11:05:23;1.60;;;1.50;;
12165;SDS011;6146;48.128;11.476;2022-09-03T11:08:22;1.70;;;1.58;;
12165;SDS011;6146;48.128;11.476;2022-09-03T11:10:56;1.80;;;1.58;;
12165;SDS011;6146;48.128;11.476;2022-09-03T11:13:53;1.58;;;1.48;;
12165;SDS011;6146;48.128;11.476;2022-09-03T11:16:30;2.25;;;1.58;;
12165;SDS011;6146;48.128;11.476;2022-09-03T11:21:39;3.00;;;2.00;;
12165;SDS011;6146;48.128;11.476;2022-09-03T11:24:16;4.18;;;3.00;;
12165;SDS011;6146;48.128;11.476;2022-09-03T11:26:56;1.80;;;1.70;;
12165;SDS011;6146;48.128;11.476;2022-09-03T11:29:38;2.83;;;2.40;;
12165;SDS011;6146;48.128;11.476;2022-09-03T11:32:23;2.03;;;1.85;;
12165;SDS011;6146;48.128;11.476;2022-09-03T11:35:15;2.10;;;1.58;;
12165;SDS011;6146;48.128;11.476;2022-09-03T11:40:36;2.92;;;1.40;;
12165;SDS011;6146;48.128;11.476;2022-09-03T11:45:37;2.20;;;1.42;;
12165;SDS011;6146;48.128;11.476;2022-09-03T11:48:17;1.60;;;1.50;;
12165;SDS011;6146;48.128;11.476;2022-09-03T11:50:53;1.50;;;1.40;;
12165;SDS011;6146;48.128;11.476;2022-09-03T11:58:29;1.95;;;1.30;;
12165;SDS011;6146;48.128;11.476;2022-09-03T12:00:58;1.50;;;1.40;;
12165;SDS011;6146;48.128;11.476;2022-09-03T12:03:27;1.30;;;1.20;;
12165;SDS011;6146;48.128;11.476;2022-09-03T12:14:32;1.35;;;1.25;;
12165;SDS011;6146;48.128;11.476;2022-09-03T12:22:18;1.20;;;1.10;;
12165;SDS011;6146;48.128;11.476;2022-09-03T12:24:45;1.30;;;1.20;;
12165;SDS011;6146;48.128;11.476;2022-09-03T12:27:14;1.30;;;1.20;;
12165;SDS011;6146;48.128;11.476;2022-09-03T12:29:55;1.50;;;1.40;;
12165;SDS011;6146;48.128;11.476;2022-09-03T12:32:26;1.50;;;1.40;;
12165;SDS011;6146;48.128;11.476;2022-09-03T12:34:56;1.00;;;1.00;;
12165;SDS011;6146;48.128;11.476;2022-09-03T12:37:23;1.33;;;1.23;;
12165;SDS011;6146;48.128;11.476;2022-09-03T12:39:51;1.20;;;1.20;;
12165;SDS011;6146;48.128;11.476;2022-09-03T12:42:27;1.70;;;1.30;;
12165;SDS011;6146;48.128;11.476;2022-09-03T12:44:55;1.60;;;1.50;;
12165;SDS011;6146;48.128;11.476;2022-09-03T12:47:36;1.38;;;1.27;;
12165;SDS011;6146;48.128;11.476;2022-09-03T12:50:08;1.27;;;1.20;;
12165;SDS011;6146;48.128;11.476;2022-09-03T12:53:00;1.50;;;1.40;;
12165;SDS011;6146;48.128;11.476;2022-09-03T12:57:59;1.58;;;1.48;;
12165;SDS011;6146;48.128;11.476;2022-09-03T13:00:30;1.67;;;1.58;;
12165;SDS011;6146;48.128;11.476;2022-09-03T13:03:07;1.93;;;1.53;;
12165;SDS011;6146;48.128;11.476;2022-09-03T13:05:42;1.40;;;1.30;;
12165;SDS011;6146;48.128;11.476;2022-09-03T13:08:13;1.70;;;1.60;;
12165;SDS011;6146;48.128;11.476;2022-09-03T13:10:48;1.48;;;1.38;;
12165;SDS011;6146;48.128;11.476;2022-09-03T13:13:21;1.90;;;1.60;;
12165;SDS011;6146;48.128;11.476;2022-09-03T13:15:55;2.57;;;1.60;;
12165;SDS011;6146;48.128;11.476;2022-09-03T13:18:26;1.60;;;1.50;;
12165;SDS011;6146;48.128;11.476;2022-09-03T13:23:42;1.60;;;1.50;;
12165;SDS011;6146;48.128;11.476;2022-09-03T13:29:27;4.60;;;1.70;;
12165;SDS011;6146;48.128;11.476;2022-09-03T13:34:53;1.50;;;1.40;;
12165;SDS011;6146;48.128;11.476;2022-09-03T13:37:44;1.40;;;1.30;;
12165;SDS011;6146;48.128;11.476;2022-09-03T13:40:24;1.60;;;1.50;;
12165;SDS011;6146;48.128;11.476;2022-09-03T13:43:01;2.20;;;1.40;;
12165;SDS011;6146;48.128;11.476;2022-09-03T13:45:38;2.30;;;1.50;;
12165;SDS011;6146;48.128;11.476;2022-09-03T13:48:43;1.70;;;1.50;;
12165;SDS011;6146;48.128;11.476;2022-09-03T13:51:30;1.60;;;1.47;;
12165;SDS011;6146;48.128;11.476;2022-09-03T13:59:30;1.90;;;1.67;;
12165;SDS011;6146;48.128;11.476;2022-09-03T14:04:43;3.13;;;1.70;;
12165;SDS011;6146;48.128;11.476;2022-09-03T14:07:37;2.97;;;1.97;;
12165;SDS011;6146;48.128;11.476;2022-09-03T14:15:51;1.63;;;1.53;;
12165;SDS011;6146;48.128;11.476;2022-09-03T14:26:59;5.73;;;2.83;;
12165;SDS011;6146;48.128;11.476;2022-09-03T14:29:29;4.83;;;3.00;;
12165;SDS011;6146;48.128;11.476;2022-09-03T14:40:44;3.83;;;2.00;;
12165;SDS011;6146;48.128;11.476;2022-09-03T14:45:51;3.63;;;2.13;;
12165;SDS011;6146;48.128;11.476;2022-09-03T15:02:14;2.53;;;1.93;;
12165;SDS011;6146;48.128;11.476;2022-09-03T15:29:48;2.03;;;1.67;;
12165;SDS011;6146;48.128;11.476;2022-09-03T15:35:07;2.50;;;2.00;;
12165;SDS011;6146;48.128;11.476;2022-09-03T15:37:36;2.60;;;2.00;;
12165;SDS011;6146;48.128;11.476;2022-09-03T15:43:46;4.40;;;2.20;;
12165;SDS011;6146;48.128;11.476;2022-09-03T15:46:09;2.23;;;1.80;;
12165;SDS011;6146;48.128;11.476;2022-09-03T15:52:05;3.20;;;2.00;;
12165;SDS011;6146;48.128;11.476;2022-09-03T15:56:00;1.90;;;1.70;;
12165;SDS011;6146;48.128;11.476;2022-09-03T16:03:10;2.80;;;1.70;;
12165;SDS011;6146;48.128;11.476;2022-09-03T16:16:23;2.57;;;1.80;;
12165;SDS011;6146;48.128;11.476;2022-09-03T16:19:57;1.97;;;1.67;;
12165;SDS011;6146;48.128;11.476;2022-09-03T16:22:17;5.17;;;1.90;;
12165;SDS011;6146;48.128;11.476;2022-09-03T16:24:54;2.10;;;1.70;;
12165;SDS011;6146;48.128;11.476;2022-09-03T16:27:35;1.97;;;1.73;;
12165;SDS011;6146;48.128;11.476;2022-09-03T16:31:05;1.97;;;1.77;;
12165;SDS011;6146;48.128;11.476;2022-09-03T16:33:21;2.20;;;1.87;;
12165;SDS011;6146;48.128;11.476;2022-09-03T16:39:02;1.77;;;1.67;;
12165;SDS011;6146;48.128;11.476;2022-09-03T16:41:42;2.57;;;1.70;;
12165;SDS011;6146;48.128;11.476;2022-09-03T17:06:27;2.40;;;2.20;;
12165;SDS011;6146;48.128;11.476;2022-09-03T17:17:37;2.83;;;2.17;;
12165;SDS011;6146;48.128;11.476;2022-09-03T17:25:28;2.47;;;2.10;;
12165;SDS011;6146;48.128;11.476;2022-09-03T17:33:32;2.20;;;2.00;;
12165;SDS011;6146;48.128;11.476;2022-09-03T17:47:16;3.00;;;2.20;;
12165;SDS011;6146;48.128;11.476;2022-09-03T17:55:11;2.80;;;2.30;;
12165;SDS011;6146;48.128;11.476;2022-09-03T17:58:00;2.73;;;2.47;;
12165;SDS011;6146;48.128;11.476;2022-09-03T18:03:44;2.20;;;2.00;;
12165;SDS011;6146;48.128;11.476;2022-09-03T18:14:34;2.73;;;2.40;;
12165;SDS011;6146;48.128;11.476;2022-09-03T18:17:13;2.30;;;2.10;;
12165;SDS011;6146;48.128;11.476;2022-09-03T18:25:58;2.77;;;1.97;;
12165;SDS011;6146;48.128;11.476;2022-09-03T18:29:11;2.37;;;2.17;;
12165;SDS011;6146;48.128;11.476;2022-09-03T18:31:59;2.43;;;2.00;;
12165;SDS011;6146;48.128;11.476;2022-09-03T18:34:44;2.30;;;2.00;;
12165;SDS011;6146;48.128;11.476;2022-09-03T18:37:29;2.40;;;2.10;;
12165;SDS011;6146;48.128;11.476;2022-09-03T18:40:18;1.97;;;1.63;;
12165;SDS011;6146;48.128;11.476;2022-09-03T18:43:15;2.67;;;2.33;;
12165;SDS011;6146;48.128;11.476;2022-09-03T18:49:08;2.87;;;2.10;;
12165;SDS011;6146;48.128;11.476;2022-09-03T18:52:14;3.50;;;2.20;;
12165;SDS011;6146;48.128;11.476;2022-09-03T18:58:17;2.20;;;2.00;;
12165;SDS011;6146;48.128;11.476;2022-09-03T19:01:37;3.03;;;2.50;;
12165;SDS011;6146;48.128;11.476;2022-09-03T19:07:29;2.93;;;2.40;;
12165;SDS011;6146;48.128;11.476;2022-09-03T19:10:39;2.63;;;2.23;;
12165;SDS011;6146;48.128;11.476;2022-09-03T19:13:32;2.83;;;2.53;;
12165;SDS011;6146;48.128;11.476;2022-09-03T19:22:48;3.20;;;2.47;;
12165;SDS011;6146;48.128;11.476;2022-09-03T19:25:27;4.23;;;2.40;;
12165;SDS011;6146;48.128;11.476;2022-09-03T19:28:19;2.80;;;2.40;;
12165;SDS011;6146;48.128;11.476;2022-09-03T19:46:47;2.70;;;2.27;;
12165;SDS011;6146;48.128;11.476;2022-09-03T19:49:41;2.63;;;2.43;;
12165;SDS011;6146;48.128;11.476;2022-09-03T19:55:25;3.70;;;2.53;;
12165;SDS011;6146;48.128;11.476;2022-09-03T19:58:12;2.50;;;2.30;;
12165;SDS011;6146;48.128;11.476;2022-09-03T20:01:01;3.57;;;2.87;;
12165;SDS011;6146;48.128;11.476;2022-09-03T20:03:45;3.77;;;3.03;;
12165;SDS011;6146;48.128;11.476;2022-09-03T20:06:30;2.80;;;2.50;;
12165;SDS011;6146;48.128;11.476;2022-09-03T20:09:18;2.70;;;2.50;;
12165;SDS011;6146;48.128;11.476;2022-09-03T20:12:06;3.87;;;2.90;;
12165;SDS011;6146;48.128;11.476;2022-09-03T20:14:35;3.33;;;2.43;;
12165;SDS011;6146;48.128;11.476;2022-09-03T20:25:16;3.13;;;2.43;;
12165;SDS011;6146;48.128;11.476;2022-09-03T20:28:02;2.80;;;2.50;;
12165;SDS011;6146;48.128;11.476;2022-09-03T20:30:49;2.43;;;2.23;;
12165;SDS011;6146;48.128;11.476;2022-09-03T20:49:52;2.80;;;2.50;;
12165;SDS011;6146;48.128;11.476;2022-09-03T20:58:22;2.60;;;2.40;;
12165;SDS011;6146;48.128;11.476;2022-09-03T21:03:54;2.83;;;2.47;;
12165;SDS011;6146;48.128;11.476;2022-09-03T21:06:57;2.37;;;2.17;;
12165;SDS011;6146;48.128;11.476;2022-09-03T21:09:27;3.17;;;1.90;;
12165;SDS011;6146;48.128;11.476;2022-09-03T21:14:34;2.40;;;2.20;;
12165;SDS011;6146;48.128;11.476;2022-09-03T21:22:36;2.57;;;2.37;;
12165;SDS011;6146;48.128;11.476;2022-09-03T21:25:04;2.67;;;2.20;;
12165;SDS011;6146;48.128;11.476;2022-09-03T21:27:44;2.90;;;2.30;;
12165;SDS011;6146;48.128;11.476;2022-09-03T21:30:18;3.20;;;2.23;;
12165;SDS011;6146;48.128;11.476;2022-09-03T21:37:53;3.17;;;2.50;;
12165;SDS011;6146;48.128;11.476;2022-09-03T21:40:22;2.80;;;2.50;;
12165;SDS011;6146;48.128;11.476;2022-09-03T21:42:54;2.53;;;2.33;;
12165;SDS011;6146;48.128;11.476;2022-09-03T21:45:39;2.60;;;2.40;;
12165;SDS011;6146;48.128;11.476;2022-09-03T21:51:06;2.30;;;2.10;;
12165;SDS011;6146;48.128;11.476;2022-09-03T21:53:44;2.53;;;2.17;;
12165;SDS011;6146;48.128;11.476;2022-09-03T22:02:11;2.60;;;2.40;;
12165;SDS011;6146;48.128;11.476;2022-09-03T22:04:45;2.60;;;2.10;;
12165;SDS011;6146;48.128;11.476;2022-09-03T22:07:16;2.37;;;2.00;;
12165;SDS011;6146;48.128;11.476;2022-09-03T22:15:28;2.07;;;1.77;;
12165;SDS011;6146;48.128;11.476;2022-09-03T22:20:47;2.50;;;2.10;;
12165;SDS011;6146;48.128;11.476;2022-09-03T22:26:29;2.50;;;2.30;;
12165;SDS011;6146;48.128;11.476;2022-09-03T22:29:25;2.53;;;2.13;;
12165;SDS011;6146;48.128;11.476;2022-09-03T22:34:54;2.10;;;1.90;;